Time;durP1;ratioP1;P1;durP2;ratioP2;P2;SDS_P1;SDS_P2;PMS_P1;PMS_P2;Temp;Humidity;BMP_temperature;BMP_pressure;BME280_temperature;BME280_humidity;BME280_pressure;Samples;Min_cycle;Max_cycle;Signal;HPM_P1;HPM_P2
2022/07/19 00:01:13;;;;;;;7.43;2.80;;;19.10;64.20;;;;;;5095319;22;20553;-73
2022/07/19 00:03:58;;;;;;;4.67;2.00;;;19.00;64.10;;;;;;5106262;28;20448;-74
2022/07/19 00:06:44;;;;;;;5.80;2.33;;;19.00;64.10;;;;;;5096037;28;20817;-73
2022/07/19 00:09:31;;;;;;;6.43;2.23;;;19.00;64.10;;;;;;5100749;28;20553;-73
2022/07/19 00:12:17;;;;;;;7.00;2.43;;;19.10;64.70;;;;;;5104476;28;20437;-73
2022/07/19 00:15:03;;;;;;;7.83;2.70;;;19.00;64.90;;;;;;5108464;27;20944;-73
2022/07/19 00:17:50;;;;;;;5.77;2.53;;;18.90;64.80;;;;;;5103599;27;20439;-72
2022/07/19 00:20:36;;;;;;;8.93;2.30;;;18.90;64.70;;;;;;5098518;28;20472;-72
2022/07/19 00:23:21;;;;;;;8.97;2.93;;;18.90;65.20;;;;;;5106826;28;20464;-74
2022/07/19 00:26:08;;;;;;;4.10;2.30;;;18.90;64.80;;;;;;5104742;28;20432;-73
2022/07/19 00:28:55;;;;;;;8.77;2.83;;;19.00;64.40;;;;;;5108035;28;20480;-73
2022/07/19 00:31:40;;;;;;;4.00;2.37;;;19.00;64.40;;;;;;5106376;28;20452;-73
2022/07/19 00:34:26;;;;;;;5.03;2.80;;;18.80;65.20;;;;;;5109865;28;20548;-73
2022/07/19 00:37:12;;;;;;;9.60;2.77;;;18.60;65.40;;;;;;5107288;28;20440;-74
2022/07/19 00:39:57;;;;;;;4.53;2.67;;;18.50;65.90;;;;;;5107033;28;20527;-75
2022/07/19 00:42:45;;;;;;;5.40;2.47;;;18.40;66.10;;;;;;5110181;28;20429;-75
2022/07/19 00:45:30;;;;;;;4.00;2.20;;;18.20;66.90;;;;;;5106365;28;20449;-72
2022/07/19 00:48:16;;;;;;;7.90;2.40;;;18.20;67.60;;;;;;5098993;27;20472;-75
2022/07/19 00:51:02;;;;;;;7.00;2.70;;;18.20;68.00;;;;;;5110895;28;20534;-73
2022/07/19 00:53:48;;;;;;;5.70;2.60;;;18.10;68.20;;;;;;5107708;28;20471;-73
2022/07/19 00:56:35;;;;;;;10.63;3.70;;;18.00;68.70;;;;;;5106041;28;20542;-73
2022/07/19 00:59:23;;;;;;;4.90;2.47;;;18.00;69.10;;;;;;5103602;28;20429;-74
2022/07/19 01:02:11;;;;;;;5.77;2.27;;;18.00;69.00;;;;;;5104473;27;20477;-73
2022/07/19 01:04:57;;;;;;;6.10;3.27;;;17.90;69.50;;;;;;5104154;28;20426;-73
2022/07/19 01:07:43;;;;;;;6.03;2.53;;;17.90;70.10;;;;;;5105466;28;20440;-73
2022/07/19 01:10:29;;;;;;;8.60;2.87;;;18.00;70.10;;;;;;5100727;28;20528;-74
2022/07/19 01:13:16;;;;;;;3.77;2.40;;;18.10;70.20;;;;;;5107440;28;20452;-74
2022/07/19 01:16:03;;;;;;;7.80;2.30;;;18.20;70.10;;;;;;5105212;27;20429;-74
2022/07/19 01:18:50;;;;;;;5.93;2.40;;;18.10;70.40;;;;;;5105265;27;20938;-74
2022/07/19 01:21:37;;;;;;;9.33;2.50;;;18.00;71.60;;;;;;5101995;27;20477;-74
2022/07/19 01:24:23;;;;;;;8.83;2.60;;;17.90;71.90;;;;;;5106096;28;20443;-76
2022/07/19 01:27:08;;;;;;;5.93;2.67;;;17.80;72.30;;;;;;5106271;28;20486;-73
2022/07/19 01:29:54;;;;;;;5.07;2.57;;;17.70;72.70;;;;;;5104134;27;20999;-75
2022/07/19 01:32:39;;;;;;;2.87;2.37;;;17.70;73.40;;;;;;5108653;28;20490;-73
2022/07/19 01:35:26;;;;;;;5.30;2.50;;;17.70;73.20;;;;;;5103189;28;20811;-73
2022/07/19 01:38:12;;;;;;;7.00;3.33;;;17.70;73.10;;;;;;5104808;28;20441;-75
2022/07/19 01:40:59;;;;;;;3.23;2.17;;;17.70;72.70;;;;;;5104609;27;20547;-73
2022/07/19 01:43:45;;;;;;;3.97;2.60;;;17.70;72.70;;;;;;5107948;28;20962;-73
2022/07/19 01:46:30;;;;;;;4.57;2.80;;;17.70;73.10;;;;;;5101614;28;21085;-74
2022/07/19 01:49:16;;;;;;;3.30;2.10;;;17.60;73.20;;;;;;5100174;27;20465;-75
2022/07/19 01:52:01;;;;;;;8.03;2.77;;;17.60;73.40;;;;;;5102477;28;20825;-73
2022/07/19 01:54:48;;;;;;;4.27;2.30;;;17.50;73.30;;;;;;5103215;28;20440;-73
2022/07/19 01:57:34;;;;;;;3.30;2.47;;;17.50;73.50;;;;;;5104304;28;20870;-73
2022/07/19 02:00:20;;;;;;;3.50;2.40;;;17.50;73.70;;;;;;5106768;28;20549;-75
2022/07/19 02:03:05;;;;;;;3.67;2.47;;;17.50;73.60;;;;;;5102371;27;20792;-72
2022/07/19 02:05:51;;;;;;;8.47;2.70;;;17.50;73.10;;;;;;5106708;28;20452;-73
2022/07/19 02:08:37;;;;;;;4.30;2.57;;;17.50;73.00;;;;;;5103664;27;20574;-75
2022/07/19 02:11:36;;;;;;;6.23;2.50;;;17.40;73.10;;;;;;5104127;28;20814;-74
2022/07/19 02:14:22;;;;;;;4.27;2.80;;;17.30;73.20;;;;;;5106989;27;20461;-76
2022/07/19 02:17:08;;;;;;;7.73;2.70;;;17.30;72.80;;;;;;5105963;28;20441;-73
2022/07/19 02:19:53;;;;;;;4.97;2.37;;;17.40;73.00;;;;;;5106384;28;20538;-73
2022/07/19 02:22:39;;;;;;;5.33;2.73;;;17.40;73.00;;;;;;5103648;28;20470;-73
2022/07/19 02:25:25;;;;;;;5.07;2.20;;;17.40;73.10;;;;;;5103669;28;20854;-73
2022/07/19 02:28:12;;;;;;;6.57;2.93;;;17.30;72.80;;;;;;5103769;28;20423;-73
2022/07/19 02:30:58;;;;;;;4.00;2.03;;;17.20;73.30;;;;;;5106006;28;20448;-73
2022/07/19 02:33:44;;;;;;;6.83;2.53;;;17.20;73.00;;;;;;5097510;28;20572;-73
2022/07/19 02:36:29;;;;;;;8.40;2.80;;;17.20;72.80;;;;;;5102906;28;20444;-73
2022/07/19 02:39:15;;;;;;;7.40;3.20;;;17.30;72.40;;;;;;5100638;28;20508;-73
2022/07/19 02:42:01;;;;;;;4.60;2.77;;;17.20;73.30;;;;;;5106131;28;20456;-74
2022/07/19 02:44:48;;;;;;;3.00;2.30;;;17.30;73.50;;;;;;5103474;28;20571;-73
2022/07/19 02:47:33;;;;;;;6.03;2.63;;;17.30;73.90;;;;;;5105240;27;20449;-73
2022/07/19 02:50:19;;;;;;;4.23;2.63;;;17.30;73.10;;;;;;5106434;28;20546;-75
2022/07/19 02:53:04;;;;;;;3.80;2.43;;;17.30;74.00;;;;;;5103432;28;20442;-75
2022/07/19 02:55:50;;;;;;;5.70;2.50;;;17.20;74.40;;;;;;5104191;28;21032;-75
2022/07/19 02:58:36;;;;;;;4.67;2.43;;;17.20;74.70;;;;;;5100326;28;20543;-74
2022/07/19 03:01:23;;;;;;;6.20;2.43;;;17.10;74.40;;;;;;5101297;28;20627;-76
2022/07/19 03:04:08;;;;;;;4.17;2.67;;;17.00;74.50;;;;;;5103035;28;20468;-75
2022/07/19 03:06:54;;;;;;;6.20;2.57;;;16.90;74.60;;;;;;5101267;28;20558;-75
2022/07/19 03:09:40;;;;;;;6.63;2.53;;;17.00;74.30;;;;;;5108863;28;20468;-75
2022/07/19 03:12:26;;;;;;;4.90;2.63;;;16.90;74.60;;;;;;5103351;28;20436;-76
2022/07/19 03:15:11;;;;;;;2.93;2.27;;;17.00;74.10;;;;;;5105295;28;20419;-75
2022/07/19 03:17:58;;;;;;;4.53;2.57;;;17.00;74.20;;;;;;5101539;28;20517;-75
2022/07/19 03:20:44;;;;;;;6.67;2.50;;;16.90;74.50;;;;;;5102086;28;20441;-75
2022/07/19 03:23:33;;;;;;;7.63;3.17;;;16.80;74.40;;;;;;5106129;28;20505;-75
2022/07/19 03:26:19;;;;;;;6.90;2.80;;;16.80;74.60;;;;;;5103164;28;20928;-75
2022/07/19 03:29:04;;;;;;;7.07;3.20;;;16.70;75.10;;;;;;5103664;28;20460;-75
2022/07/19 03:31:50;;;;;;;12.40;2.80;;;16.80;75.00;;;;;;5100872;28;20517;-75
2022/07/19 03:34:37;;;;;;;7.70;2.57;;;16.70;75.00;;;;;;5107046;28;20980;-75
2022/07/19 03:37:23;;;;;;;7.53;3.63;;;16.70;75.10;;;;;;5103325;28;20555;-74
2022/07/19 03:40:10;;;;;;;4.37;2.77;;;16.70;75.00;;;;;;5100234;28;20484;-73
2022/07/19 03:42:55;;;;;;;5.00;2.40;;;16.80;74.80;;;;;;5100058;28;20437;-75
2022/07/19 03:45:42;;;;;;;2.80;1.90;;;16.80;75.00;;;;;;5098803;28;20575;-75
2022/07/19 03:48:28;;;;;;;4.00;2.50;;;16.70;75.00;;;;;;5106423;28;20460;-74
2022/07/19 03:51:15;;;;;;;4.20;2.20;;;16.70;75.10;;;;;;5105069;27;20464;-75
2022/07/19 03:54:00;;;;;;;6.80;3.07;;;16.80;75.10;;;;;;5113581;28;20466;-74
2022/07/19 03:56:46;;;;;;;3.20;2.17;;;16.80;74.60;;;;;;5107738;27;20583;-74
2022/07/19 03:59:31;;;;;;;8.73;3.67;;;16.80;74.20;;;;;;5110835;28;20494;-75
2022/07/19 04:02:17;;;;;;;9.90;2.83;;;16.70;74.70;;;;;;5111277;28;20953;-75
2022/07/19 04:05:03;;;;;;;9.53;1.73;;;16.60;75.20;;;;;;5108025;28;20421;-75
2022/07/19 04:07:50;;;;;;;20.27;2.50;;;16.50;75.60;;;;;;5105437;28;20453;-74
2022/07/19 04:10:36;;;;;;;7.40;2.13;;;16.40;75.30;;;;;;5109508;28;20469;-75
2022/07/19 04:13:21;;;;;;;4.87;2.40;;;16.30;76.10;;;;;;5106422;28;20472;-75
2022/07/19 04:16:07;;;;;;;3.80;2.13;;;16.40;76.70;;;;;;5101337;28;20527;-75
2022/07/19 04:18:53;;;;;;;4.40;2.20;;;16.30;76.80;;;;;;5106084;28;20593;-74
2022/07/19 04:21:38;;;;;;;3.20;2.17;;;16.40;77.00;;;;;;5098642;28;20445;-73
2022/07/19 04:24:25;;;;;;;16.03;2.60;;;16.40;76.80;;;;;;5105056;28;20449;-75
2022/07/19 04:27:11;;;;;;;15.73;2.47;;;16.50;76.80;;;;;;5101795;27;20446;-75
2022/07/19 04:29:57;;;;;;;7.50;2.07;;;16.60;76.50;;;;;;5108372;27;20475;-75
2022/07/19 04:32:43;;;;;;;16.53;2.30;;;16.60;76.40;;;;;;5108217;28;20434;-74
2022/07/19 04:35:29;;;;;;;8.57;2.60;;;16.70;76.80;;;;;;5104261;28;20526;-74
2022/07/19 04:38:15;;;;;;;5.90;2.43;;;16.70;76.40;;;;;;5104408;28;20444;-75
2022/07/19 04:41:02;;;;;;;8.87;2.37;;;16.80;76.70;;;;;;5110954;28;20530;-75
2022/07/19 04:43:47;;;;;;;7.10;2.10;;;16.70;76.60;;;;;;5109892;28;20444;-75
2022/07/19 04:46:33;;;;;;;7.43;2.40;;;16.80;76.70;;;;;;5100708;28;20440;-75
2022/07/19 04:49:18;;;;;;;12.37;2.33;;;16.80;76.70;;;;;;5108021;27;20440;-74
2022/07/19 04:52:04;;;;;;;5.10;2.07;;;16.90;76.80;;;;;;5104026;27;20464;-73
2022/07/19 04:54:50;;;;;;;4.10;2.60;;;16.90;76.90;;;;;;5106806;28;20784;-74
2022/07/19 04:57:37;;;;;;;3.30;2.00;;;16.90;76.90;;;;;;5107673;27;20445;-75
2022/07/19 05:00:22;;;;;;;4.80;2.63;;;17.00;77.00;;;;;;5101601;28;20468;-74
2022/07/19 05:03:08;;;;;;;4.60;2.53;;;17.20;77.00;;;;;;5101322;28;20454;-75
2022/07/19 05:05:53;;;;;;;4.50;1.90;;;17.30;76.70;;;;;;5105223;28;20487;-74
2022/07/19 05:08:39;;;;;;;4.10;2.10;;;17.40;77.30;;;;;;5109834;28;20466;-75
2022/07/19 05:11:24;;;;;;;3.10;2.20;;;17.30;78.00;;;;;;5104627;27;20477;-75
2022/07/19 05:14:11;;;;;;;6.07;3.20;;;17.50;77.60;;;;;;5105180;28;20443;-75
2022/07/19 05:16:57;;;;;;;8.73;2.30;;;17.60;77.30;;;;;;5103877;27;20445;-74
2022/07/19 05:19:43;;;;;;;6.17;2.97;;;17.70;77.30;;;;;;5109000;28;20433;-74
2022/07/19 05:22:29;;;;;;;9.43;2.63;;;17.90;78.00;;;;;;5107246;27;21040;-75
2022/07/19 05:25:14;;;;;;;4.30;2.47;;;18.10;77.80;;;;;;5105527;28;21057;-75
2022/07/19 05:28:00;;;;;;;6.30;2.67;;;18.20;78.40;;;;;;5104514;27;20420;-75
2022/07/19 05:30:47;;;;;;;4.67;2.97;;;18.30;77.80;;;;;;5105483;28;20464;-75
2022/07/19 05:33:33;;;;;;;3.80;2.53;;;18.40;78.60;;;;;;5104315;27;20452;-75
2022/07/19 05:36:19;;;;;;;4.43;3.00;;;18.60;77.70;;;;;;5103279;28;20420;-75
2022/07/19 05:39:04;;;;;;;12.33;3.17;;;18.70;77.60;;;;;;5107106;28;20520;-75
2022/07/19 05:41:50;;;;;;;3.80;2.47;;;18.90;76.70;;;;;;5105302;28;20542;-75
2022/07/19 05:44:36;;;;;;;6.67;3.13;;;19.00;75.90;;;;;;5102142;28;20445;-74
2022/07/19 05:47:23;;;;;;;4.70;2.97;;;19.10;75.70;;;;;;5104831;27;20491;-75
2022/07/19 05:50:09;;;;;;;4.60;2.33;;;19.30;76.20;;;;;;5106566;28;20550;-75
2022/07/19 05:52:55;;;;;;;5.03;2.90;;;19.40;74.70;;;;;;5106640;28;20502;-74
2022/07/19 05:55:40;;;;;;;4.87;3.00;;;19.50;74.80;;;;;;5100014;28;20804;-74
2022/07/19 05:58:26;;;;;;;4.70;3.10;;;19.60;74.30;;;;;;5105510;27;20435;-75
2022/07/19 06:03:41;;;;;;;10.23;3.13;;;19.90;75.10;;;;;;5067322;28;20474;-75
2022/07/19 06:06:29;;;;;;;7.80;2.80;;;20.10;74.70;;;;;;5073462;28;20833;-75
2022/07/19 06:09:15;;;;;;;7.73;2.73;;;20.20;72.90;;;;;;5080227;28;20477;-75
2022/07/19 06:12:01;;;;;;;7.37;3.50;;;20.30;73.70;;;;;;5067158;28;20458;-75
2022/07/19 06:14:47;;;;;;;6.57;3.00;;;20.50;73.10;;;;;;5061879;28;20450;-75
2022/07/19 06:17:32;;;;;;;6.83;3.23;;;20.60;73.20;;;;;;5070756;28;20454;-76
2022/07/19 06:20:20;;;;;;;5.97;3.00;;;20.80;74.10;;;;;;5070914;28;20463;-75
2022/07/19 06:23:05;;;;;;;4.43;2.50;;;20.90;74.80;;;;;;5069006;28;20470;-75
2022/07/19 06:25:51;;;;;;;5.40;2.77;;;21.10;73.20;;;;;;5065264;28;20454;-75
2022/07/19 06:28:36;;;;;;;5.70;2.60;;;21.20;74.80;;;;;;5071545;28;20946;-75
2022/07/19 06:31:22;;;;;;;6.90;3.50;;;21.30;74.10;;;;;;5067491;28;20555;-75
2022/07/19 06:34:08;;;;;;;6.40;2.73;;;21.60;73.50;;;;;;5065665;28;20520;-75
2022/07/19 06:36:55;;;;;;;5.33;2.90;;;21.70;72.50;;;;;;5068606;28;20607;-76
2022/07/19 06:39:40;;;;;;;5.50;2.70;;;21.80;70.50;;;;;;5065091;28;20963;-75
2022/07/19 06:42:26;;;;;;;5.20;2.27;;;22.00;71.50;;;;;;5068530;28;20466;-75
2022/07/19 06:45:12;;;;;;;3.70;2.60;;;22.10;71.40;;;;;;5064411;28;20451;-75
2022/07/19 06:47:58;;;;;;;7.63;3.27;;;22.30;69.70;;;;;;5064850;28;20447;-76
2022/07/19 06:50:43;;;;;;;3.20;2.37;;;22.40;66.90;;;;;;5069097;28;21006;-75
2022/07/19 06:53:30;;;;;;;7.90;4.20;;;22.50;63.70;;;;;;5071929;28;20463;-75
2022/07/19 06:56:16;;;;;;;5.90;2.80;;;22.60;63.70;;;;;;5068814;28;20446;-75
2022/07/19 06:59:02;;;;;;;5.63;2.47;;;22.80;65.40;;;;;;5075954;28;20989;-75
2022/07/19 07:01:47;;;;;;;3.40;2.10;;;22.90;67.00;;;;;;5070778;28;20604;-75
2022/07/19 07:04:33;;;;;;;5.57;2.73;;;23.10;67.50;;;;;;5066775;28;21001;-76
2022/07/19 07:07:19;;;;;;;6.50;2.70;;;23.20;67.50;;;;;;5067100;28;21495;-76
2022/07/19 07:10:08;;;;;;;4.50;2.53;;;23.30;66.70;;;;;;5072800;28;20470;-76
2022/07/19 07:12:54;;;;;;;5.83;2.70;;;23.50;66.70;;;;;;5072445;28;20486;-76
2022/07/19 07:15:39;;;;;;;12.27;4.07;;;23.70;67.90;;;;;;5066421;28;20581;-76
2022/07/19 07:18:25;;;;;;;13.83;3.40;;;23.80;65.10;;;;;;5069222;28;20458;-76
2022/07/19 07:21:11;;;;;;;10.00;3.50;;;24.00;68.20;;;;;;5071517;28;20761;-76
2022/07/19 07:23:56;;;;;;;7.87;2.57;;;24.10;65.60;;;;;;5066124;28;21176;-76
2022/07/19 07:26:43;;;;;;;4.10;2.43;;;24.20;65.30;;;;;;5069507;28;21005;-76
2022/07/19 07:29:29;;;;;;;5.27;2.90;;;24.40;64.10;;;;;;5070708;28;20438;-76
2022/07/19 07:32:15;;;;;;;3.83;2.13;;;24.60;60.50;;;;;;5070207;28;20482;-76
2022/07/19 07:35:00;;;;;;;7.77;2.80;;;24.80;64.30;;;;;;5064720;28;20443;-76
2022/07/19 07:37:46;;;;;;;5.43;2.43;;;24.90;63.70;;;;;;5065917;28;20449;-76
2022/07/19 07:40:31;;;;;;;9.57;2.53;;;25.10;53.60;;;;;;5070387;28;20443;-76
2022/07/19 07:43:18;;;;;;;4.67;2.43;;;25.20;58.80;;;;;;5066454;28;20457;-76
2022/07/19 07:46:04;;;;;;;3.30;2.20;;;25.40;53.90;;;;;;5065873;28;20447;-76
2022/07/19 07:48:50;;;;;;;5.20;3.00;;;25.60;55.50;;;;;;5070155;28;20851;-76
2022/07/19 07:51:35;;;;;;;5.60;2.60;;;25.70;49.70;;;;;;5070035;28;20474;-76
2022/07/19 07:54:21;;;;;;;4.60;2.40;;;25.90;44.30;;;;;;5069315;28;20471;-76
2022/07/19 07:57:08;;;;;;;5.67;2.57;;;26.10;45.80;;;;;;5065390;28;20954;-76
2022/07/19 07:59:55;;;;;;;7.80;2.03;;;26.30;47.50;;;;;;5066784;28;20477;-76
2022/07/19 08:02:41;;;;;;;3.77;2.30;;;26.40;42.20;;;;;;5067062;28;20497;-76
2022/07/19 08:05:27;;;;;;;7.60;2.70;;;26.50;44.70;;;;;;5068147;28;20438;-76
2022/07/19 08:08:12;;;;;;;4.37;2.70;;;26.60;36.80;;;;;;5070556;28;21250;-76
2022/07/19 08:10:58;;;;;;;4.33;2.33;;;26.80;33.90;;;;;;5067313;28;20603;-76
2022/07/19 08:13:44;;;;;;;6.00;1.90;;;26.90;29.70;;;;;;5073856;28;20576;-76
2022/07/19 08:16:31;;;;;;;3.50;2.00;;;27.10;27.60;;;;;;5067346;28;20446;-76
2022/07/19 08:19:17;;;;;;;4.60;2.00;;;27.40;27.60;;;;;;5070565;28;20524;-76
2022/07/19 08:22:02;;;;;;;7.30;2.17;;;27.50;29.80;;;;;;5068240;28;20526;-76
2022/07/19 08:24:48;;;;;;;5.40;2.60;;;27.60;28.40;;;;;;5068309;28;20446;-76
2022/07/19 08:27:33;;;;;;;6.67;2.60;;;27.70;31.70;;;;;;5068298;28;20665;-76
2022/07/19 08:30:19;;;;;;;6.17;2.50;;;27.80;30.70;;;;;;5064825;28;20457;-76
2022/07/19 08:33:08;;;;;;;7.63;2.27;;;27.90;28.60;;;;;;5062229;28;20466;-75
2022/07/19 08:35:54;;;;;;;6.83;2.20;;;28.00;26.20;;;;;;5074140;28;20934;-75
2022/07/19 08:38:40;;;;;;;5.40;1.97;;;28.00;26.30;;;;;;5072653;28;20440;-75
2022/07/19 08:41:25;;;;;;;2.70;1.87;;;28.10;27.30;;;;;;5072976;28;20415;-75
2022/07/19 08:44:12;;;;;;;6.63;2.60;;;28.20;27.40;;;;;;5070307;28;20635;-75
2022/07/19 08:46:58;;;;;;;9.00;2.40;;;28.30;25.60;;;;;;5071901;28;20442;-75
2022/07/19 08:49:45;;;;;;;5.50;2.33;;;28.40;24.60;;;;;;5072769;28;20442;-75
2022/07/19 08:52:33;;;;;;;7.53;2.13;;;28.50;24.20;;;;;;5067084;28;20559;-75
2022/07/19 08:55:19;;;;;;;3.97;2.50;;;28.60;21.30;;;;;;5072127;28;20438;-75
2022/07/19 08:58:04;;;;;;;3.37;1.90;;;28.70;25.30;;;;;;5070900;28;20522;-77
2022/07/19 09:00:50;;;;;;;10.00;2.40;;;28.80;25.10;;;;;;5066263;28;20465;-76
2022/07/19 09:03:35;;;;;;;4.17;2.27;;;28.90;20.70;;;;;;5064462;28;20528;-76
2022/07/19 09:06:22;;;;;;;5.63;2.47;;;29.10;21.60;;;;;;5072205;28;20959;-76
2022/07/19 09:09:09;;;;;;;5.30;2.70;;;29.20;20.00;;;;;;5072434;28;20902;-76
2022/07/19 09:11:59;;;;;;;15.60;6.90;;;29.30;21.70;;;;;;5071850;28;21042;-76
2022/07/19 09:14:54;;;;;;;7.60;5.10;;;29.50;21.80;;;;;;5067071;28;20600;-77
2022/07/19 09:17:40;;;;;;;4.90;2.47;;;29.60;19.70;;;;;;5068349;28;20427;-76
2022/07/19 09:20:27;;;;;;;8.17;2.13;;;29.70;22.00;;;;;;5077261;28;20478;-77
2022/07/19 09:23:15;;;;;;;5.57;2.20;;;29.70;19.90;;;;;;5060067;28;20467;-76
2022/07/19 09:26:02;;;;;;;3.37;1.97;;;29.80;18.10;;;;;;5067834;28;20473;-76
2022/07/19 09:28:48;;;;;;;8.50;2.70;;;29.80;19.50;;;;;;5066723;28;20432;-76
2022/07/19 09:31:34;;;;;;;6.50;2.30;;;29.80;19.50;;;;;;5070893;28;20552;-76
2022/07/19 09:34:28;;;;;;;3.53;1.77;;;29.90;18.50;;;;;;5071279;28;20468;-76
2022/07/19 09:37:20;;;;;;;3.07;2.23;;;30.00;19.60;;;;;;5064762;28;20428;-76
2022/07/19 09:40:10;;;;;;;3.83;2.30;;;30.10;18.40;;;;;;5072447;28;20431;-77
2022/07/19 09:42:56;;;;;;;5.50;2.10;;;30.20;17.40;;;;;;5069372;28;20471;-76
2022/07/19 09:45:41;;;;;;;6.53;1.97;;;30.20;18.30;;;;;;5063214;28;20807;-76
2022/07/19 09:48:44;;;;;;;8.73;2.00;;;30.30;19.20;;;;;;5071730;28;20443;-76
2022/07/19 09:51:31;;;;;;;3.53;2.13;;;30.50;18.50;;;;;;5065681;28;20895;-77
2022/07/19 09:54:19;;;;;;;7.87;2.50;;;30.50;19.30;;;;;;5069698;28;20497;-77
2022/07/19 09:57:08;;;;;;;5.33;2.20;;;30.60;17.30;;;;;;5063947;28;20540;-77
2022/07/19 09:59:57;;;;;;;5.87;2.30;;;30.60;17.50;;;;;;5070431;28;20598;-76
2022/07/19 10:02:44;;;;;;;5.37;2.30;;;30.70;19.20;;;;;;5071705;28;20493;-77
2022/07/19 10:05:31;;;;;;;6.93;2.50;;;30.80;18.70;;;;;;5068324;28;20446;-77
2022/07/19 10:08:16;;;;;;;5.60;2.40;;;30.90;19.40;;;;;;5069231;28;20450;-76
2022/07/19 10:11:03;;;;;;;4.40;2.13;;;31.10;18.50;;;;;;5071432;28;20478;-77
2022/07/19 10:13:51;;;;;;;3.63;2.03;;;31.20;17.20;;;;;;5069393;28;20437;-77
2022/07/19 10:16:49;;;;;;;6.13;2.63;;;31.20;17.00;;;;;;5066894;28;20818;-77
2022/07/19 10:19:39;;;;;;;7.17;2.10;;;31.30;19.20;;;;;;5064768;28;20541;-77
2022/07/19 10:22:26;;;;;;;5.67;2.90;;;31.30;16.20;;;;;;5066744;28;20470;-76
2022/07/19 10:25:15;;;;;;;3.77;2.23;;;31.40;17.40;;;;;;5067178;28;20528;-76
2022/07/19 10:28:00;;;;;;;6.30;2.40;;;31.50;17.20;;;;;;5067881;28;20458;-77
2022/07/19 10:30:48;;;;;;;5.10;3.13;;;31.60;17.30;;;;;;5068394;28;20486;-76
2022/07/19 10:33:36;;;;;;;6.17;2.63;;;31.70;16.20;;;;;;5063763;28;20468;-76
2022/07/19 10:36:37;;;;;;;6.03;2.80;;;31.70;16.30;;;;;;5065657;28;20793;-76
2022/07/19 10:39:30;;;;;;;6.07;2.47;;;31.80;18.20;;;;;;5069434;28;20430;-76
2022/07/19 10:42:19;;;;;;;3.93;2.03;;;31.80;15.80;;;;;;5067887;28;20435;-76
2022/07/19 10:45:14;;;;;;;6.90;2.53;;;31.80;17.00;;;;;;5069012;28;20462;-76
2022/07/19 10:48:16;;;;;;;8.70;1.97;;;31.90;17.20;;;;;;5069842;28;20427;-77
2022/07/19 10:51:02;;;;;;;5.40;2.10;;;32.00;15.60;;;;;;5067644;28;20449;-77
2022/07/19 10:54:02;;;;;;;4.17;2.30;;;32.10;17.30;;;;;;5070271;28;20434;-76
2022/07/19 10:56:59;;;;;;;3.27;1.80;;;32.10;16.20;;;;;;5069445;28;20678;-77
2022/07/19 10:59:46;;;;;;;4.50;2.30;;;32.20;16.70;;;;;;5065489;28;20426;-77
2022/07/19 11:02:32;;;;;;;3.00;2.10;;;32.30;16.40;;;;;;5070672;28;20450;-77
2022/07/19 11:05:26;;;;;;;6.93;2.50;;;32.40;16.60;;;;;;5068799;28;20830;-76
2022/07/19 11:08:12;;;;;;;4.57;2.60;;;32.50;16.90;;;;;;5068857;28;20427;-77
2022/07/19 11:11:04;;;;;;;9.43;2.10;;;32.60;15.70;;;;;;5069066;28;20546;-76
2022/07/19 11:13:51;;;;;;;3.73;2.43;;;32.70;15.50;;;;;;5065556;28;20427;-77
2022/07/19 11:16:37;;;;;;;5.17;2.20;;;32.70;15.10;;;;;;5064400;28;20488;-76
2022/07/19 11:19:22;;;;;;;7.20;2.47;;;32.80;15.50;;;;;;5065245;28;20427;-76
2022/07/19 11:22:11;;;;;;;5.80;2.30;;;32.90;15.20;;;;;;5062355;28;20529;-76
2022/07/19 11:24:56;;;;;;;7.50;2.20;;;33.00;14.20;;;;;;5068618;28;20577;-76
2022/07/19 11:27:43;;;;;;;8.00;2.40;;;33.10;14.80;;;;;;5069352;28;20422;-77
2022/07/19 11:30:32;;;;;;;5.50;2.10;;;33.30;13.60;;;;;;5066300;28;20423;-77
2022/07/19 11:33:19;;;;;;;4.60;2.40;;;33.30;12.80;;;;;;5069141;28;20483;-77
2022/07/19 11:36:05;;;;;;;4.03;2.00;;;33.30;15.60;;;;;;5068664;28;20451;-76
2022/07/19 11:38:53;;;;;;;4.37;2.03;;;33.30;12.80;;;;;;5064835;28;20787;-77
2022/07/19 11:41:39;;;;;;;8.70;2.60;;;33.40;14.60;;;;;;5068086;28;20504;-76
2022/07/19 11:44:25;;;;;;;7.47;2.90;;;33.60;14.70;;;;;;5067779;28;21112;-76
2022/07/19 11:47:10;;;;;;;12.47;2.70;;;33.60;13.80;;;;;;5069786;28;21027;-77
2022/07/19 11:50:04;;;;;;;4.73;2.60;;;33.70;12.50;;;;;;5066942;28;20833;-76
2022/07/19 11:52:52;;;;;;;4.47;2.47;;;33.70;13.70;;;;;;5063701;28;20610;-76
2022/07/19 11:55:40;;;;;;;4.20;2.53;;;33.80;12.50;;;;;;5070424;28;20445;-76
2022/07/19 11:58:26;;;;;;;4.03;2.63;;;33.90;14.30;;;;;;5068452;28;20527;-76
2022/07/19 12:01:12;;;;;;;4.63;2.30;;;33.90;14.80;;;;;;5067450;28;20419;-76
2022/07/19 12:04:01;;;;;;;16.93;4.07;;;34.00;13.80;;;;;;5093488;22;20984;-72
2022/07/19 12:06:48;;;;;;;3.87;2.70;;;34.00;14.30;;;;;;5088130;28;20437;-71
2022/07/19 12:09:34;;;;;;;7.23;2.60;;;34.10;12.80;;;;;;5086514;28;20445;-72
2022/07/19 12:12:21;;;;;;;4.67;2.40;;;34.30;12.80;;;;;;5090709;28;20477;-71
2022/07/19 12:15:08;;;;;;;6.33;2.43;;;34.30;12.90;;;;;;5085741;28;20580;-71
2022/07/19 12:17:57;;;;;;;4.07;2.00;;;34.40;11.80;;;;;;5090773;28;20441;-71
2022/07/19 12:20:43;;;;;;;8.40;2.77;;;34.50;13.00;;;;;;5090418;28;20446;-71
2022/07/19 12:23:29;;;;;;;5.90;2.43;;;34.50;13.00;;;;;;5085739;28;20477;-71
2022/07/19 12:26:15;;;;;;;4.43;2.70;;;34.60;13.00;;;;;;5091372;28;20567;-71
2022/07/19 12:29:02;;;;;;;9.97;2.60;;;34.70;13.10;;;;;;5092023;28;20446;-71
2022/07/19 12:31:49;;;;;;;5.50;3.60;;;34.80;11.50;;;;;;5090311;28;20472;-71
2022/07/19 12:34:48;;;;;;;6.57;2.40;;;34.80;12.50;;;;;;5086813;28;20456;-72
2022/07/19 12:37:39;;;;;;;4.20;2.30;;;34.80;13.20;;;;;;5088982;28;20523;-71
2022/07/19 12:40:25;;;;;;;4.07;2.30;;;35.00;12.50;;;;;;5091118;28;20449;-72
2022/07/19 12:43:12;;;;;;;19.00;3.20;;;35.00;11.30;;;;;;5089947;28;20465;-71
2022/07/19 12:46:02;;;;;;;4.87;2.80;;;35.10;11.70;;;;;;5089560;28;20902;-70
2022/07/19 12:48:47;;;;;;;4.07;2.30;;;35.20;11.50;;;;;;5091248;28;20571;-71
2022/07/19 12:51:33;;;;;;;6.23;2.90;;;35.30;11.70;;;;;;5089577;28;20457;-71
2022/07/19 12:54:19;;;;;;;9.43;2.93;;;35.50;11.20;;;;;;5087279;28;21254;-72
2022/07/19 12:57:05;;;;;;;8.67;2.97;;;35.40;9.80;;;;;;5088050;28;20445;-71
2022/07/19 12:59:50;;;;;;;4.67;2.47;;;35.40;10.50;;;;;;5091626;28;20472;-71
2022/07/19 13:02:37;;;;;;;5.13;2.40;;;35.50;11.40;;;;;;5086536;28;20481;-72
2022/07/19 13:05:24;;;;;;;7.30;2.70;;;35.50;10.80;;;;;;5087306;28;20449;-72
2022/07/19 13:08:09;;;;;;;6.17;2.77;;;35.70;10.00;;;;;;5089963;28;20504;-71
2022/07/19 13:10:55;;;;;;;6.03;2.87;;;35.70;11.70;;;;;;5090216;28;20962;-71
2022/07/19 13:13:41;;;;;;;6.97;2.53;;;35.90;10.50;;;;;;5085518;28;20478;-72
2022/07/19 13:16:26;;;;;;;5.23;2.73;;;36.00;8.80;;;;;;5089522;28;20572;-72
2022/07/19 13:19:13;;;;;;;6.13;2.47;;;35.90;9.10;;;;;;5089688;28;20453;-72
2022/07/19 13:21:59;;;;;;;4.70;2.70;;;36.00;8.90;;;;;;5088827;28;20437;-72
2022/07/19 13:24:45;;;;;;;3.60;2.10;;;36.10;9.50;;;;;;5085385;28;20449;-72
2022/07/19 13:27:31;;;;;;;7.33;2.73;;;36.20;8.80;;;;;;5085941;28;20442;-72
2022/07/19 13:30:16;;;;;;;4.60;2.47;;;36.40;9.80;;;;;;5089943;28;20504;-71
2022/07/19 13:33:02;;;;;;;4.20;2.10;;;36.40;9.70;;;;;;5088183;28;20477;-72
2022/07/19 13:35:49;;;;;;;4.53;1.80;;;36.70;9.10;;;;;;5089568;28;20966;-71
2022/07/19 13:38:38;;;;;;;4.90;2.70;;;36.80;10.30;;;;;;5088329;28;20441;-72
2022/07/19 13:41:24;;;;;;;6.47;4.13;;;37.00;9.20;;;;;;5088756;28;21068;-72
2022/07/19 13:44:09;;;;;;;7.83;2.63;;;37.10;8.40;;;;;;5083695;28;21013;-72
2022/07/19 13:46:57;;;;;;;4.50;2.63;;;37.20;9.40;;;;;;5089630;28;20445;-72
2022/07/19 13:49:43;;;;;;;4.13;2.93;;;37.20;7.70;;;;;;5088472;28;20439;-71
2022/07/19 13:52:30;;;;;;;6.70;3.20;;;37.20;8.30;;;;;;5088547;28;20477;-71
2022/07/19 13:55:15;;;;;;;4.20;2.70;;;37.30;8.40;;;;;;5087693;28;21003;-71
2022/07/19 13:58:02;;;;;;;7.60;2.37;;;37.40;8.00;;;;;;5089923;28;20441;-72
2022/07/19 14:00:48;;;;;;;8.00;2.37;;;37.50;7.40;;;;;;5089334;28;20449;-71
2022/07/19 14:03:34;;;;;;;6.77;2.90;;;37.50;8.70;;;;;;5085020;28;20474;-72
2022/07/19 14:06:20;;;;;;;10.77;2.97;;;37.60;8.70;;;;;;5088641;28;20524;-72
2022/07/19 14:09:07;;;;;;;4.10;2.57;;;37.60;6.80;;;;;;5086789;28;20441;-71
2022/07/19 14:11:53;;;;;;;6.07;2.53;;;37.50;7.10;;;;;;5087637;28;20445;-72
2022/07/19 14:14:39;;;;;;;5.87;3.20;;;37.50;7.60;;;;;;5083471;28;20722;-72
2022/07/19 14:17:24;;;;;;;5.97;3.43;;;37.50;8.00;;;;;;5089831;28;20442;-72
2022/07/19 14:20:11;;;;;;;6.60;3.50;;;37.50;6.60;;;;;;5089305;28;20414;-71
2022/07/19 14:22:57;;;;;;;9.10;3.17;;;37.40;5.80;;;;;;5085371;28;20528;-71
2022/07/19 14:25:44;;;;;;;5.70;2.93;;;37.40;8.00;;;;;;5090943;28;20529;-71
2022/07/19 14:28:30;;;;;;;8.70;3.13;;;37.40;8.10;;;;;;5084002;28;20784;-72
2022/07/19 14:31:15;;;;;;;4.93;2.70;;;37.40;7.60;;;;;;5087746;28;20487;-71